createdAt,value
2018-08-18T00:00:56.142Z,48.10
2018-08-18T00:03:24.403Z,48.00
2018-08-18T00:05:52.735Z,48.50
2018-08-18T00:08:20.988Z,48.30
2018-08-18T00:10:49.246Z,48.30
2018-08-18T00:13:17.497Z,48.20
2018-08-18T00:15:45.769Z,48.00
2018-08-18T00:18:14.204Z,48.00
2018-08-18T00:20:42.474Z,47.90
2018-08-18T00:23:10.762Z,47.80
2018-08-18T00:25:39.032Z,48.20
2018-08-18T00:28:19.629Z,48.10
2018-08-18T00:30:47.897Z,47.90
2018-08-18T00:33:16.160Z,48.00
2018-08-18T00:35:44.421Z,48.10
2018-08-18T00:38:13.256Z,48.00
2018-08-18T00:40:41.497Z,47.90
2018-08-18T00:43:09.821Z,48.50
2018-08-18T00:45:38.144Z,47.70
2018-08-18T00:48:06.442Z,47.70
2018-08-18T00:50:44.032Z,47.80
2018-08-18T00:53:14.124Z,47.70
2018-08-18T00:55:42.388Z,47.70
2018-08-18T00:58:16.452Z,47.70
2018-08-18T01:00:48.920Z,47.90
2018-08-18T01:03:17.185Z,47.80
2018-08-18T01:05:45.504Z,47.90
2018-08-18T01:08:13.806Z,48.00
2018-08-18T01:10:42.070Z,48.00
2018-08-18T01:13:10.391Z,48.10
2018-08-18T01:15:38.681Z,48.00
2018-08-18T01:18:06.917Z,48.00
2018-08-18T01:20:35.170Z,48.30
2018-08-18T01:23:03.447Z,48.10
2018-08-18T01:25:31.705Z,48.00
2018-08-18T01:28:00.386Z,48.00
2018-08-18T01:30:28.724Z,48.10
2018-08-18T01:32:56.991Z,48.70
2018-08-18T01:35:25.311Z,48.40
2018-08-18T01:37:53.584Z,48.40
2018-08-18T01:40:22.109Z,48.40
2018-08-18T01:42:50.392Z,48.40
2018-08-18T01:45:18.668Z,48.30
2018-08-18T01:47:46.977Z,48.20
2018-08-18T01:50:20.026Z,48.20
2018-08-18T01:52:48.276Z,48.20
2018-08-18T01:55:16.524Z,48.30
2018-08-18T01:57:44.869Z,48.40
2018-08-18T02:00:24.628Z,48.30
2018-08-18T02:02:52.939Z,48.60
2018-08-18T02:05:21.264Z,48.70
2018-08-18T02:07:49.523Z,48.60
2018-08-18T02:10:17.806Z,48.50
2018-08-18T02:12:57.272Z,49.00
2018-08-18T02:15:25.556Z,48.30
2018-08-18T02:17:53.809Z,48.30
2018-08-18T02:20:22.061Z,48.30
2018-08-18T02:22:50.313Z,48.40
2018-08-18T02:25:18.597Z,48.30
2018-08-18T02:27:46.849Z,48.50
2018-08-18T02:30:16.265Z,48.60
2018-08-18T02:32:44.506Z,48.60
2018-08-18T02:35:12.817Z,48.50
2018-08-18T02:37:41.053Z,48.50
2018-08-18T02:40:15.096Z,48.40
2018-08-18T02:42:43.236Z,48.30
2018-08-18T02:45:12.092Z,48.30
2018-08-18T02:47:40.425Z,48.40
2018-08-18T02:50:09.770Z,48.30
2018-08-18T02:52:38.080Z,48.30
2018-08-18T02:55:08.561Z,48.30
2018-08-18T02:57:39.959Z,48.60
2018-08-18T03:00:11.956Z,48.70
2018-08-18T03:02:40.217Z,48.60
2018-08-18T03:05:08.512Z,48.50
2018-08-18T03:07:42.161Z,48.50
2018-08-18T03:10:15.615Z,48.50
2018-08-18T03:12:43.943Z,48.50
2018-08-18T03:15:16.149Z,48.50
2018-08-18T03:17:44.409Z,48.50
2018-08-18T03:20:12.665Z,48.50
2018-08-18T03:22:41.210Z,48.50
2018-08-18T03:25:09.485Z,48.50
2018-08-18T03:27:37.770Z,48.50
2018-08-18T03:30:06.101Z,48.50
2018-08-18T03:32:34.376Z,49.20
2018-08-18T03:35:02.617Z,48.30
2018-08-18T03:37:31.693Z,48.30
2018-08-18T03:39:59.945Z,48.40
2018-08-18T03:42:33.505Z,48.30
2018-08-18T03:45:01.811Z,48.30
2018-08-18T03:47:30.020Z,48.40
2018-08-18T03:49:58.259Z,48.50
2018-08-18T03:52:26.554Z,48.40
2018-08-18T03:54:54.827Z,48.50
2018-08-18T03:57:23.089Z,48.40
2018-08-18T03:59:51.354Z,48.40
2018-08-18T04:02:19.645Z,48.40
2018-08-18T04:04:49.757Z,48.50
2018-08-18T04:07:17.997Z,48.50
2018-08-18T04:09:46.441Z,48.50
2018-08-18T04:12:14.691Z,48.60
2018-08-18T04:14:44.257Z,48.60
2018-08-18T04:17:24.637Z,48.50
2018-08-18T04:19:53.407Z,48.60
2018-08-18T04:22:22.773Z,48.70
2018-08-18T04:24:51.004Z,48.60
2018-08-18T04:27:36.553Z,48.60
2018-08-18T04:30:07.497Z,48.70
2018-08-18T04:32:48.701Z,48.60
2018-08-18T04:35:17.600Z,48.70
2018-08-18T04:37:45.789Z,48.80
2018-08-18T04:40:14.040Z,48.80
2018-08-18T04:42:42.677Z,48.80
2018-08-18T04:45:11.224Z,48.90
2018-08-18T04:47:39.511Z,48.90
2018-08-18T04:50:07.749Z,48.90
2018-08-18T04:52:36.018Z,48.90
2018-08-18T04:55:04.694Z,48.90
2018-08-18T04:57:33.053Z,49.00
2018-08-18T05:00:01.289Z,49.00
2018-08-18T05:02:29.541Z,48.80
2018-08-18T05:04:57.804Z,48.90
2018-08-18T05:07:27.681Z,48.80
2018-08-18T05:09:55.899Z,48.90
2018-08-18T05:12:24.134Z,49.00
2018-08-18T05:14:52.406Z,49.00
2018-08-18T05:17:20.973Z,49.00
2018-08-18T05:19:53.477Z,49.10
2018-08-18T05:22:21.765Z,49.10
2018-08-18T05:24:50.018Z,49.10
2018-08-18T05:27:19.237Z,49.20
2018-08-18T05:29:48.158Z,49.20
2018-08-18T05:32:16.409Z,49.20
2018-08-18T05:34:44.665Z,49.10
2018-08-18T05:37:12.901Z,49.30
2018-08-18T05:39:41.155Z,49.30
2018-08-18T05:42:09.426Z,49.30
2018-08-18T05:44:37.669Z,50.70
2018-08-18T05:47:05.953Z,49.60
2018-08-18T05:49:34.252Z,49.60
2018-08-18T05:52:02.651Z,49.40
2018-08-18T05:54:30.914Z,49.40
2018-08-18T05:56:59.196Z,49.40
2018-08-18T05:59:27.459Z,49.50
2018-08-18T06:01:55.760Z,49.60
2018-08-18T06:04:24.012Z,50.10
2018-08-18T06:06:52.947Z,50.70
2018-08-18T06:09:22.334Z,49.90
2018-08-18T06:11:50.633Z,50.00
2018-08-18T06:14:19.216Z,50.20
2018-08-18T06:16:47.818Z,50.10
2018-08-18T06:19:16.135Z,50.00
2018-08-18T06:21:44.416Z,50.00
2018-08-18T06:24:12.711Z,49.80
2018-08-18T06:26:41.045Z,49.90
2018-08-18T06:29:09.302Z,49.70
2018-08-18T06:31:54.385Z,50.40
2018-08-18T06:34:23.719Z,50.50
2018-08-18T06:36:52.000Z,49.80
2018-08-18T06:39:20.317Z,49.80
2018-08-18T06:41:48.643Z,49.80
2018-08-18T06:44:18.183Z,49.80
2018-08-18T06:46:49.144Z,49.80
2018-08-18T06:49:17.508Z,50.00
2018-08-18T06:51:45.924Z,50.00
2018-08-18T06:54:14.246Z,50.20
2018-08-18T06:56:43.221Z,50.40
2018-08-18T06:59:11.480Z,50.60
2018-08-18T07:01:39.941Z,50.20
2018-08-18T07:04:13.436Z,50.10
2018-08-18T07:06:42.004Z,50.20
2018-08-18T07:09:10.649Z,50.40
2018-08-18T07:11:38.929Z,50.70
2018-08-18T07:14:07.715Z,51.20
2018-08-18T07:16:35.996Z,50.70
2018-08-18T07:19:04.248Z,50.30
2018-08-18T07:21:32.512Z,50.20
2018-08-18T07:24:00.834Z,50.10
2018-08-18T07:26:29.092Z,50.20
2018-08-18T07:28:57.452Z,50.00
2018-08-18T07:31:25.583Z,50.00
2018-08-18T07:33:54.432Z,51.00
2018-08-18T07:36:24.113Z,50.00
2018-08-18T07:38:52.385Z,50.00
2018-08-18T07:41:20.632Z,50.70
2018-08-18T07:43:48.849Z,51.70
2018-08-18T07:46:17.183Z,50.50
2018-08-18T07:48:45.381Z,50.20
2018-08-18T07:51:13.641Z,50.80
2018-08-18T07:53:41.867Z,51.10
2018-08-18T07:56:10.156Z,50.30
2018-08-18T07:58:38.760Z,50.50
2018-08-18T08:01:07.412Z,50.00
2018-08-18T08:03:35.690Z,51.10
2018-08-18T08:06:03.938Z,50.40
2018-08-18T08:08:37.471Z,50.40
2018-08-18T08:11:11.888Z,50.40
2018-08-18T08:13:40.313Z,50.60
2018-08-18T08:16:08.908Z,50.40
2018-08-18T08:18:37.169Z,50.30
2018-08-18T08:21:05.423Z,50.20
2018-08-18T08:23:33.709Z,50.20
2018-08-18T08:26:01.981Z,50.10
2018-08-18T08:28:30.249Z,50.10
2018-08-18T08:30:58.525Z,50.30
2018-08-18T08:33:33.548Z,51.30
2018-08-18T08:36:01.877Z,51.80
2018-08-18T08:38:41.592Z,50.60
2018-08-18T08:41:12.206Z,50.30
2018-08-18T08:43:40.446Z,52.60
2018-08-18T08:46:08.692Z,50.90
2018-08-18T08:48:37.034Z,50.70
2018-08-18T08:51:05.264Z,50.80
2018-08-18T08:53:33.552Z,53.20
2018-08-18T08:56:01.763Z,51.80
2018-08-18T08:58:30.042Z,51.60
2018-08-18T09:00:58.277Z,51.10
2018-08-18T09:03:26.568Z,51.60
2018-08-18T09:05:54.841Z,52.60
2018-08-18T09:08:23.124Z,52.60
2018-08-18T09:10:51.387Z,51.00
2018-08-18T09:13:19.657Z,50.70
2018-08-18T09:15:47.933Z,51.20
2018-08-18T09:18:16.221Z,50.70
2018-08-18T09:20:46.353Z,51.30
2018-08-18T09:23:14.609Z,50.90
2018-08-18T09:25:42.858Z,51.00
2018-08-18T09:28:11.233Z,51.00
2018-08-18T09:30:39.513Z,50.70
2018-08-18T09:33:08.317Z,50.40
2018-08-18T09:35:55.007Z,50.40
2018-08-18T09:38:23.316Z,50.20
2018-08-18T09:40:51.713Z,51.50
2018-08-18T09:43:22.862Z,51.30
2018-08-18T09:45:51.973Z,50.50
2018-08-18T09:48:21.143Z,51.00
2018-08-18T09:50:49.552Z,50.60
2018-08-18T09:53:17.847Z,50.50
2018-08-18T09:55:47.269Z,50.60
2018-08-18T09:58:15.544Z,50.30
2018-08-18T10:00:48.344Z,50.50
2018-08-18T10:03:16.600Z,50.70
2018-08-18T10:05:44.841Z,50.70
2018-08-18T10:08:13.137Z,50.40
2018-08-18T10:10:41.376Z,50.30
2018-08-18T10:13:09.649Z,50.10
2018-08-18T10:15:37.918Z,50.10
2018-08-18T10:18:06.193Z,49.80
2018-08-18T10:20:38.726Z,49.70
2018-08-18T10:23:08.853Z,49.50
2018-08-18T10:25:37.093Z,50.10
2018-08-18T10:28:05.613Z,50.20
2018-08-18T10:30:33.913Z,50.10
2018-08-18T10:33:03.860Z,49.90
2018-08-18T10:35:32.568Z,49.50
2018-08-18T10:38:05.346Z,49.50
2018-08-18T10:40:33.605Z,49.50
2018-08-18T10:43:01.857Z,49.40
2018-08-18T10:45:30.170Z,49.20
2018-08-18T10:47:58.439Z,49.10
2018-08-18T10:50:37.686Z,49.00
2018-08-18T10:53:08.751Z,49.10
2018-08-18T10:55:38.638Z,48.90
2018-08-18T10:58:08.330Z,49.00
2018-08-18T11:00:37.293Z,48.80
2018-08-18T11:03:06.736Z,48.70
2018-08-18T11:05:35.318Z,48.70
2018-08-18T11:08:08.448Z,48.50
2018-08-18T11:10:39.089Z,48.80
2018-08-18T11:13:07.337Z,48.60
2018-08-18T11:15:39.869Z,48.20
2018-08-18T11:18:08.097Z,48.40
2018-08-18T11:20:36.381Z,48.60
2018-08-18T11:23:19.420Z,49.00
2018-08-18T11:25:56.784Z,48.70
2018-08-18T11:28:25.420Z,48.40
2018-08-18T11:30:54.616Z,48.20
2018-08-18T11:33:35.721Z,48.20
2018-08-18T11:36:05.758Z,48.20
2018-08-18T11:38:35.185Z,47.70
2018-08-18T11:41:04.404Z,48.40
2018-08-18T11:43:37.169Z,48.40
2018-08-18T11:46:05.869Z,48.00
2018-08-18T11:48:35.256Z,48.70
2018-08-18T11:51:03.524Z,48.40
2018-08-18T11:53:31.795Z,48.30
2018-08-18T11:56:00.037Z,48.00
2018-08-18T11:58:28.289Z,47.90
2018-08-18T12:00:58.589Z,47.30
2018-08-18T12:03:29.372Z,48.20
2018-08-18T12:05:59.380Z,48.30
2018-08-18T12:08:28.989Z,48.20
2018-08-18T12:10:59.680Z,47.80
2018-08-18T12:13:33.346Z,47.80
2018-08-18T12:16:05.738Z,47.70
2018-08-18T12:18:35.280Z,47.70
2018-08-18T12:21:05.024Z,47.70
2018-08-18T12:23:35.375Z,47.40
2018-08-18T12:26:04.981Z,46.00
2018-08-18T12:28:38.541Z,47.10
2018-08-18T12:31:24.546Z,46.60
2018-08-18T12:33:53.572Z,47.50
2018-08-18T12:36:21.982Z,47.30
2018-08-18T12:38:56.376Z,47.40
2018-08-18T12:41:24.752Z,47.20
2018-08-18T12:43:57.667Z,45.00
2018-08-18T12:46:36.211Z,47.30
2018-08-18T12:49:05.800Z,46.40
2018-08-18T12:51:34.069Z,47.20
2018-08-18T12:54:03.812Z,46.30
2018-08-18T12:56:32.130Z,46.40
2018-08-18T12:59:00.600Z,46.90
2018-08-18T13:01:41.684Z,44.20
2018-08-18T13:04:13.550Z,47.20
2018-08-18T13:06:43.845Z,46.80
2018-08-18T13:09:14.553Z,46.90
2018-08-18T13:11:44.001Z,45.30
2018-08-18T13:14:14.886Z,46.50
2018-08-18T13:16:43.207Z,46.90
2018-08-18T13:19:12.193Z,46.30
2018-08-18T13:21:40.452Z,45.80
2018-08-18T13:24:08.734Z,45.40
2018-08-18T13:26:37.018Z,45.30
2018-08-18T13:29:05.353Z,46.70
2018-08-18T13:31:38.015Z,46.70
2018-08-18T13:34:07.577Z,46.40
2018-08-18T13:36:38.121Z,46.50
2018-08-18T13:39:14.130Z,46.40
2018-08-18T13:41:43.415Z,44.70
2018-08-18T13:44:11.749Z,45.10
2018-08-18T13:46:49.288Z,44.70
2018-08-18T13:49:21.077Z,45.10
2018-08-18T13:51:49.342Z,46.10
2018-08-18T13:54:17.593Z,45.40
2018-08-18T13:56:45.896Z,45.20
2018-08-18T13:59:14.344Z,44.50
2018-08-18T14:01:43.929Z,46.40
2018-08-18T14:04:21.178Z,44.30
2018-08-18T14:06:54.944Z,46.40
2018-08-18T14:09:23.188Z,44.30
2018-08-18T14:11:54.572Z,45.50
2018-08-18T14:14:22.833Z,45.60
2018-08-18T14:16:51.172Z,44.50
2018-08-18T14:19:21.161Z,45.00
2018-08-18T14:21:53.840Z,45.20
2018-08-18T14:24:26.447Z,45.30
2018-08-18T14:27:01.157Z,46.30
2018-08-18T14:29:31.006Z,45.80
2018-08-18T14:31:59.641Z,46.20
2018-08-18T14:34:27.950Z,45.20
2018-08-18T14:37:00.560Z,45.50
2018-08-18T14:39:35.740Z,46.20
2018-08-18T14:42:04.045Z,45.90
2018-08-18T14:44:32.305Z,45.80
2018-08-18T14:47:00.620Z,45.00
2018-08-18T14:49:28.860Z,45.60
2018-08-18T14:51:57.141Z,44.90
2018-08-18T14:54:28.367Z,45.40
2018-08-18T14:56:57.605Z,45.60
2018-08-18T14:59:31.117Z,45.20
2018-08-18T15:02:00.183Z,44.50
2018-08-18T15:04:28.558Z,45.00
2018-08-18T15:06:56.732Z,42.60
2018-08-18T15:09:41.405Z,44.70
2018-08-18T15:12:09.690Z,45.50
2018-08-18T15:14:37.920Z,44.40
2018-08-18T15:17:06.220Z,44.20
2018-08-18T15:19:34.495Z,44.90
2018-08-18T15:22:09.066Z,43.60
2018-08-18T15:24:37.308Z,43.00
2018-08-18T15:27:05.604Z,45.10
2018-08-18T15:29:33.870Z,45.10
2018-08-18T15:32:02.148Z,45.40
2018-08-18T15:34:30.432Z,45.00
2018-08-18T15:36:58.710Z,43.60
2018-08-18T15:39:28.349Z,43.70
2018-08-18T15:41:58.086Z,45.20
2018-08-18T15:44:26.415Z,43.20
2018-08-18T15:46:54.681Z,45.40
2018-08-18T15:49:22.926Z,44.70
2018-08-18T15:51:51.216Z,44.70
2018-08-18T15:54:19.490Z,43.90
2018-08-18T15:56:47.718Z,45.10
2018-08-18T15:59:15.960Z,43.10
2018-08-18T16:01:44.234Z,44.70
2018-08-18T16:04:12.467Z,44.90
2018-08-18T16:06:40.718Z,43.90
2018-08-18T16:09:09.218Z,44.50
2018-08-18T16:11:37.542Z,44.00
2018-08-18T16:14:05.813Z,44.90
2018-08-18T16:16:48.422Z,44.60
2018-08-18T16:19:16.657Z,43.20
2018-08-18T16:21:44.921Z,44.60
2018-08-18T16:24:27.564Z,45.10
2018-08-18T16:26:55.808Z,43.70
2018-08-18T16:29:24.072Z,45.00
2018-08-18T16:31:57.264Z,44.00
2018-08-18T16:34:25.525Z,44.90
2018-08-18T16:36:53.790Z,43.40
2018-08-18T16:39:22.012Z,44.80
2018-08-18T16:41:50.292Z,44.30
2018-08-18T16:44:18.577Z,45.10
2018-08-18T16:46:48.044Z,45.60
2018-08-18T16:49:16.288Z,44.50
2018-08-18T16:51:44.589Z,44.80
2018-08-18T16:54:20.201Z,45.60
2018-08-18T16:56:48.441Z,44.40
2018-08-18T16:59:16.707Z,45.60
2018-08-18T17:01:45.396Z,45.40
2018-08-18T17:04:17.931Z,45.80
2018-08-18T17:06:46.172Z,46.20
2018-08-18T17:09:24.546Z,44.60
2018-08-18T17:12:03.765Z,45.40
2018-08-18T17:14:32.014Z,45.90
2018-08-18T17:17:00.427Z,45.20
2018-08-18T17:19:28.688Z,45.00
2018-08-18T17:21:56.949Z,44.60
2018-08-18T17:24:25.237Z,46.10
2018-08-18T17:26:53.542Z,46.20
2018-08-18T17:29:21.848Z,45.40
2018-08-18T17:31:50.220Z,46.60
2018-08-18T17:34:18.462Z,46.80
2018-08-18T17:36:46.708Z,46.80
2018-08-18T17:39:14.981Z,46.80
2018-08-18T17:41:43.217Z,46.80
2018-08-18T17:44:11.481Z,46.40
2018-08-18T17:46:43.981Z,46.90
2018-08-18T17:49:13.296Z,46.60
2018-08-18T17:51:50.361Z,47.10
2018-08-18T17:54:18.609Z,47.20
2018-08-18T17:56:46.870Z,46.40
2018-08-18T17:59:15.098Z,46.90
2018-08-18T18:01:55.703Z,47.20
2018-08-18T18:04:25.041Z,47.20
2018-08-18T18:06:53.280Z,47.20
2018-08-18T18:09:22.148Z,47.10
2018-08-18T18:11:50.449Z,47.10
2018-08-18T18:14:18.715Z,47.20
2018-08-18T18:16:46.979Z,47.70
2018-08-18T18:19:15.250Z,47.10
2018-08-18T18:21:45.166Z,47.00
2018-08-18T18:24:13.586Z,48.00
2018-08-18T18:26:45.477Z,47.40
2018-08-18T18:29:18.144Z,48.20
2018-08-18T18:31:46.452Z,47.60
2018-08-18T18:34:14.849Z,47.60
2018-08-18T18:36:43.133Z,47.60
2018-08-18T18:39:11.491Z,47.60
2018-08-18T18:41:39.996Z,48.30
2018-08-18T18:44:08.436Z,47.60
2018-08-18T18:46:36.989Z,47.60
2018-08-18T18:49:19.553Z,47.70
2018-08-18T18:51:47.945Z,47.70
2018-08-18T18:54:16.206Z,47.60
2018-08-18T18:56:44.458Z,47.80
2018-08-18T18:59:12.757Z,47.90
2018-08-18T19:01:41.087Z,47.90
2018-08-18T19:04:09.483Z,47.90
2018-08-18T19:06:52.051Z,47.90
2018-08-18T19:09:20.439Z,48.00
2018-08-18T19:11:48.777Z,48.00
2018-08-18T19:14:17.100Z,48.00
2018-08-18T19:16:45.552Z,47.80
2018-08-18T19:19:13.841Z,47.90
2018-08-18T19:21:42.119Z,47.90
2018-08-18T19:24:18.666Z,47.90
2018-08-18T19:26:52.263Z,47.80
2018-08-18T19:29:23.381Z,47.80
2018-08-18T19:31:54.069Z,47.80
2018-08-18T19:34:22.466Z,47.90
2018-08-18T19:37:01.477Z,47.80
2018-08-18T19:39:30.886Z,47.80
2018-08-18T19:42:19.399Z,47.80
2018-08-18T19:44:51.707Z,47.90
2018-08-18T19:47:38.656Z,48.00
2018-08-18T19:50:07.896Z,47.90
2018-08-18T19:52:36.159Z,47.80
2018-08-18T19:55:04.444Z,48.50
2018-08-18T19:57:36.550Z,47.80
2018-08-18T20:00:16.334Z,47.80
2018-08-18T20:02:51.953Z,47.90
2018-08-18T20:05:21.246Z,47.80
2018-08-18T20:07:49.730Z,47.90
2018-08-18T20:10:18.045Z,47.80
2018-08-18T20:12:46.341Z,47.80
2018-08-18T20:15:15.273Z,47.80
2018-08-18T20:17:43.665Z,47.70
2018-08-18T20:20:12.360Z,47.70
2018-08-18T20:22:40.841Z,47.90
2018-08-18T20:25:09.092Z,47.80
2018-08-18T20:27:37.383Z,47.90
2018-08-18T20:30:05.677Z,47.90
2018-08-18T20:32:33.921Z,48.00
2018-08-18T20:35:02.166Z,47.90
2018-08-18T20:37:30.422Z,48.00
2018-08-18T20:39:58.705Z,48.00
2018-08-18T20:42:32.357Z,48.00
2018-08-18T20:45:00.622Z,48.60
2018-08-18T20:47:30.597Z,48.10
2018-08-18T20:49:59.104Z,48.00
2018-08-18T20:52:28.592Z,48.00
2018-08-18T20:54:57.733Z,47.90
2018-08-18T20:57:25.997Z,48.00
2018-08-18T20:59:54.231Z,48.20
2018-08-18T21:02:22.509Z,48.10
2018-08-18T21:04:56.036Z,48.10
2018-08-18T21:07:24.349Z,48.10
2018-08-18T21:09:52.581Z,48.60
2018-08-18T21:12:20.832Z,48.50
2018-08-18T21:14:49.061Z,48.50
2018-08-18T21:17:17.328Z,48.30
2018-08-18T21:19:45.605Z,48.30
2018-08-18T21:22:14.524Z,48.50
2018-08-18T21:24:42.809Z,48.40
2018-08-18T21:27:11.123Z,48.30
2018-08-18T21:29:39.383Z,48.50
2018-08-18T21:32:07.654Z,48.50
2018-08-18T21:34:41.297Z,48.30
2018-08-18T21:37:09.748Z,48.30
2018-08-18T21:39:37.985Z,48.40
2018-08-18T21:42:06.256Z,48.30
2018-08-18T21:44:34.675Z,48.40
2018-08-18T21:47:03.069Z,48.40
2018-08-18T21:49:31.841Z,48.30
2018-08-18T21:52:00.080Z,48.30
2018-08-18T21:54:28.727Z,48.30
2018-08-18T21:56:57.036Z,48.30
2018-08-18T21:59:25.282Z,48.40
2018-08-18T22:01:58.801Z,48.40
2018-08-18T22:04:27.085Z,48.80
2018-08-18T22:06:55.338Z,48.40
2018-08-18T22:09:28.884Z,48.40
2018-08-18T22:11:57.163Z,48.30
2018-08-18T22:14:25.445Z,48.30
2018-08-18T22:16:56.456Z,49.00
2018-08-18T22:19:25.270Z,48.30
2018-08-18T22:21:53.657Z,48.30
2018-08-18T22:24:22.052Z,48.30
2018-08-18T22:26:50.496Z,48.30
2018-08-18T22:29:22.961Z,48.20
2018-08-18T22:31:51.488Z,48.90
2018-08-18T22:34:19.741Z,48.20
2018-08-18T22:36:47.996Z,48.30
2018-08-18T22:39:17.744Z,48.20
2018-08-18T22:41:46.018Z,48.30
2018-08-18T22:44:14.337Z,48.40
2018-08-18T22:46:42.567Z,48.30
2018-08-18T22:49:10.809Z,48.30
2018-08-18T22:51:39.075Z,48.30
2018-08-18T22:54:07.304Z,48.40
2018-08-18T22:56:36.334Z,48.30
2018-08-18T22:59:06.165Z,48.40
2018-08-18T23:01:35.562Z,48.30
2018-08-18T23:04:04.888Z,48.40
2018-08-18T23:06:35.074Z,48.50
2018-08-18T23:09:03.713Z,48.40
2018-08-18T23:11:31.969Z,48.50
2018-08-18T23:14:00.266Z,48.50
2018-08-18T23:16:28.492Z,48.40
2018-08-18T23:18:56.741Z,48.30
2018-08-18T23:21:29.497Z,48.40
2018-08-18T23:23:59.329Z,48.40
2018-08-18T23:26:27.765Z,48.40
2018-08-18T23:28:56.169Z,48.40
2018-08-18T23:31:24.674Z,48.50
2018-08-18T23:33:52.916Z,48.50
2018-08-18T23:36:21.174Z,48.50
2018-08-18T23:38:54.589Z,48.40
2018-08-18T23:41:22.836Z,48.40
2018-08-18T23:43:51.481Z,48.40
2018-08-18T23:46:19.724Z,48.50
2018-08-18T23:48:47.970Z,48.50
2018-08-18T23:51:16.208Z,48.60
2018-08-18T23:53:44.455Z,48.50
2018-08-18T23:56:12.665Z,48.60
2018-08-18T23:58:40.925Z,49.20
